Time;durP1;ratioP1;P1;durP2;ratioP2;P2;SDS_P1;SDS_P2;PMS_P1;PMS_P2;Temp;Humidity;BMP_temperature;BMP_pressure;BME280_temperature;BME280_humidity;BME280_pressure;Samples;Min_cycle;Max_cycle;Signal;HPM_P1;HPM_P2
2024/04/20 00:01:38;;;;;;;5.90;2.70;;;9.30;99.90;;;;;;5488741;26;20443;-69
2024/04/20 00:04:08;;;;;;;3.33;3.10;;;9.30;99.90;;;;;;5488779;26;21030;-68
2024/04/20 00:06:36;;;;;;;4.93;3.17;;;9.20;99.90;;;;;;5488798;26;20446;-68
2024/04/20 00:09:05;;;;;;;3.30;3.00;;;9.20;99.90;;;;;;5488627;26;20447;-68
2024/04/20 00:11:33;;;;;;;3.80;2.90;;;9.20;99.90;;;;;;5491781;26;20439;-68
2024/04/20 00:14:01;;;;;;;3.50;3.20;;;9.20;99.90;;;;;;5492291;26;20447;-68
2024/04/20 00:16:29;;;;;;;2.93;2.73;;;9.20;99.90;;;;;;5492193;26;20481;-68
2024/04/20 00:18:57;;;;;;;4.83;2.67;;;9.20;99.90;;;;;;5492320;26;20495;-68
2024/04/20 00:21:28;;;;;;;2.77;2.67;;;9.10;99.90;;;;;;5492064;26;20477;-68
2024/04/20 00:23:56;;;;;;;3.87;3.57;;;9.20;99.90;;;;;;5492121;26;20447;-68
2024/04/20 00:26:24;;;;;;;3.43;3.00;;;9.10;99.90;;;;;;5492056;26;21009;-68
2024/04/20 00:28:52;;;;;;;4.00;3.70;;;9.10;99.90;;;;;;5492055;26;20487;-68
2024/04/20 00:31:20;;;;;;;3.33;3.10;;;9.10;99.90;;;;;;5492003;26;20795;-68
2024/04/20 00:33:49;;;;;;;4.60;4.20;;;9.20;99.90;;;;;;5491890;26;20447;-68
2024/04/20 00:36:17;;;;;;;4.00;3.60;;;9.20;99.90;;;;;;5491879;26;20949;-68
2024/04/20 00:38:48;;;;;;;5.63;3.83;;;9.20;99.90;;;;;;5491767;26;20827;-69
2024/04/20 00:41:16;;;;;;;4.93;4.27;;;9.20;99.90;;;;;;5491971;26;20499;-68
2024/04/20 00:43:44;;;;;;;5.70;4.67;;;9.20;99.90;;;;;;5491815;26;20451;-68
2024/04/20 00:46:12;;;;;;;4.13;3.73;;;9.00;99.90;;;;;;5491652;26;20827;-69
2024/04/20 00:48:41;;;;;;;4.50;4.10;;;9.00;99.90;;;;;;5491645;26;20447;-68
2024/04/20 00:51:10;;;;;;;5.07;4.20;;;9.10;99.90;;;;;;5491663;26;20451;-68
2024/04/20 00:53:38;;;;;;;5.30;4.13;;;9.10;99.90;;;;;;5491588;26;20443;-69
2024/04/20 00:56:09;;;;;;;4.03;3.73;;;9.10;99.90;;;;;;5491274;26;20474;-68
2024/04/20 00:58:38;;;;;;;5.13;3.63;;;8.80;99.90;;;;;;5491561;26;20451;-68
2024/04/20 01:01:07;;;;;;;3.90;3.43;;;8.80;99.90;;;;;;5491400;26;20843;-68
2024/04/20 01:03:35;;;;;;;7.33;3.03;;;8.80;99.90;;;;;;5491444;26;20451;-68
2024/04/20 01:06:04;;;;;;;3.40;3.10;;;8.80;99.90;;;;;;5491481;26;20435;-68
2024/04/20 01:08:33;;;;;;;3.00;2.80;;;8.80;99.90;;;;;;5491345;26;20451;-69
2024/04/20 01:11:02;;;;;;;2.47;2.27;;;8.70;99.90;;;;;;5491397;26;20491;-68
2024/04/20 01:13:32;;;;;;;3.33;3.13;;;8.70;99.90;;;;;;5491344;26;20443;-68
2024/04/20 01:16:01;;;;;;;3.07;2.87;;;8.70;99.90;;;;;;5491399;26;20455;-68
2024/04/20 01:18:29;;;;;;;3.83;2.77;;;8.70;99.90;;;;;;5491248;26;20443;-69
2024/04/20 01:20:57;;;;;;;3.23;2.93;;;8.70;99.90;;;;;;5491659;26;20439;-68
2024/04/20 01:23:26;;;;;;;2.07;1.97;;;8.80;99.90;;;;;;5491211;26;20962;-68
2024/04/20 01:25:57;;;;;;;2.50;2.30;;;8.80;99.90;;;;;;5491159;26;20447;-69
2024/04/20 01:28:22;;;;;;;2.60;2.40;;;8.70;99.90;;;;;;5491227;26;20451;-68
2024/04/20 01:30:50;;;;;;;2.60;2.40;;;8.70;99.90;;;;;;5491294;26;20497;-68
2024/04/20 01:33:19;;;;;;;3.43;2.13;;;8.70;99.90;;;;;;5491209;26;20226;-69
2024/04/20 01:35:48;;;;;;;2.23;2.07;;;8.60;99.90;;;;;;5491050;26;20439;-68
2024/04/20 01:38:16;;;;;;;2.50;2.37;;;8.60;99.90;;;;;;5490932;26;20579;-68
2024/04/20 01:40:45;;;;;;;2.20;2.10;;;8.60;99.90;;;;;;5490836;26;20487;-68
2024/04/20 01:43:14;;;;;;;2.27;2.07;;;8.70;99.90;;;;;;5490950;26;20443;-69
2024/04/20 01:45:42;;;;;;;2.63;2.43;;;8.60;99.90;;;;;;5490973;26;20455;-69
2024/04/20 01:48:11;;;;;;;2.23;2.10;;;8.60;99.90;;;;;;5490722;26;20459;-69
2024/04/20 01:50:39;;;;;;;1.73;1.63;;;8.60;99.90;;;;;;5490649;26;20439;-68
2024/04/20 01:53:07;;;;;;;2.17;1.97;;;8.60;99.90;;;;;;5490692;26;20446;-68
2024/04/20 01:55:35;;;;;;;4.17;2.10;;;8.60;99.90;;;;;;5490521;26;20507;-68
2024/04/20 01:58:04;;;;;;;2.60;2.40;;;8.50;99.90;;;;;;5490629;26;20451;-69
2024/04/20 02:00:34;;;;;;;4.03;2.10;;;8.30;99.90;;;;;;5491132;26;20451;-68
2024/04/20 02:03:02;;;;;;;2.10;1.90;;;8.30;99.90;;;;;;5490855;26;20486;-68
2024/04/20 02:05:30;;;;;;;2.43;2.23;;;8.30;99.90;;;;;;5490606;26;20451;-68
2024/04/20 02:07:59;;;;;;;2.70;2.13;;;8.30;99.90;;;;;;5490362;26;20450;-68
2024/04/20 02:10:27;;;;;;;2.53;2.33;;;8.20;99.90;;;;;;5490396;26;20495;-68
2024/04/20 02:12:55;;;;;;;2.70;2.20;;;8.00;99.90;;;;;;5490423;26;20842;-68
2024/04/20 02:15:23;;;;;;;2.40;2.30;;;8.00;99.90;;;;;;5490399;26;20594;-68
2024/04/20 02:17:51;;;;;;;2.30;2.10;;;8.00;99.90;;;;;;5490394;26;20476;-68
2024/04/20 02:20:19;;;;;;;2.33;2.20;;;8.00;99.90;;;;;;5490321;26;20977;-68
2024/04/20 02:22:47;;;;;;;2.10;1.90;;;8.00;99.90;;;;;;5490704;26;20491;-68
2024/04/20 02:25:15;;;;;;;2.40;2.30;;;7.90;99.90;;;;;;5490259;26;20451;-68
2024/04/20 02:27:44;;;;;;;2.57;2.13;;;7.80;99.90;;;;;;5490092;26;20443;-68
2024/04/20 02:30:12;;;;;;;3.00;2.43;;;7.80;99.90;;;;;;5490156;26;20514;-69
2024/04/20 02:32:40;;;;;;;2.67;2.47;;;7.80;99.90;;;;;;5489331;26;20869;-68
2024/04/20 02:35:11;;;;;;;2.97;2.77;;;7.90;99.90;;;;;;5490689;26;20492;-68
2024/04/20 02:37:39;;;;;;;2.83;2.60;;;7.80;99.90;;;;;;5490119;26;20841;-68
2024/04/20 02:40:09;;;;;;;2.23;2.13;;;7.70;99.90;;;;;;5489981;26;20443;-68
2024/04/20 02:42:37;;;;;;;2.30;2.20;;;7.60;99.90;;;;;;5489914;26;20491;-68
2024/04/20 02:45:06;;;;;;;2.47;2.30;;;7.60;99.90;;;;;;5489985;26;20483;-68
2024/04/20 02:47:34;;;;;;;2.90;2.70;;;7.60;99.90;;;;;;5489904;26;20879;-68
2024/04/20 02:50:02;;;;;;;2.40;2.30;;;7.60;99.90;;;;;;5489824;26;20443;-69
2024/04/20 02:52:33;;;;;;;2.90;2.70;;;7.70;99.90;;;;;;5489872;26;20541;-68
2024/04/20 02:55:01;;;;;;;3.20;3.00;;;7.70;99.90;;;;;;5489774;26;20852;-68
2024/04/20 02:57:29;;;;;;;2.77;2.57;;;7.70;99.90;;;;;;5489713;26;20499;-69
2024/04/20 02:59:57;;;;;;;2.53;2.43;;;7.70;99.90;;;;;;5489559;26;20676;-68
2024/04/20 03:02:25;;;;;;;2.80;2.60;;;7.70;99.90;;;;;;5489835;26;20439;-68
2024/04/20 03:04:53;;;;;;;2.87;2.67;;;7.60;99.90;;;;;;5489692;26;20768;-68
2024/04/20 03:07:21;;;;;;;2.50;2.30;;;7.60;99.90;;;;;;5489625;26;20446;-68
2024/04/20 03:09:52;;;;;;;2.67;2.50;;;7.40;99.90;;;;;;5489467;26;20213;-68
2024/04/20 03:12:21;;;;;;;2.40;2.20;;;7.40;99.90;;;;;;5489613;26;20419;-68
2024/04/20 03:14:52;;;;;;;1.97;1.87;;;7.40;99.90;;;;;;5489414;26;20451;-69
2024/04/20 03:17:21;;;;;;;2.10;2.00;;;7.30;99.90;;;;;;5489494;26;20494;-68
2024/04/20 03:19:50;;;;;;;2.43;1.80;;;7.30;99.90;;;;;;5489329;26;20469;-68
2024/04/20 03:22:18;;;;;;;1.30;1.20;;;7.30;99.90;;;;;;5489330;26;20455;-68
2024/04/20 03:24:46;;;;;;;2.30;1.20;;;7.20;99.90;;;;;;5489282;26;20463;-68
2024/04/20 03:27:17;;;;;;;1.20;1.10;;;7.20;99.90;;;;;;5489219;26;20521;-68
2024/04/20 03:29:45;;;;;;;0.80;0.80;;;7.20;99.90;;;;;;5489671;26;20582;-68
2024/04/20 03:32:13;;;;;;;0.90;0.83;;;7.00;99.90;;;;;;5489092;26;20487;-68
2024/04/20 03:34:41;;;;;;;1.00;0.90;;;6.90;99.90;;;;;;5489126;26;20450;-68
2024/04/20 03:37:12;;;;;;;0.88;0.80;;;6.90;99.90;;;;;;5489004;26;20490;-68
2024/04/20 03:39:40;;;;;;;0.90;0.70;;;6.80;99.90;;;;;;5488956;26;20313;-68
2024/04/20 03:42:08;;;;;;;0.90;0.90;;;6.70;99.90;;;;;;5489020;26;20214;-68
2024/04/20 03:44:39;;;;;;;0.90;0.70;;;6.70;99.90;;;;;;5488932;26;20237;-68
2024/04/20 03:47:08;;;;;;;0.70;0.70;;;;;;;;;;5492780;26;20206;-69
2024/04/20 03:49:37;;;;;;;0.85;0.80;;;;;;;;;;5492388;26;20213;-68
2024/04/20 03:52:05;;;;;;;1.10;0.95;;;;;;;;;;5492380;26;20604;-68
2024/04/20 03:54:34;;;;;;;0.70;0.70;;;;;;;;;;5492334;26;20253;-68
2024/04/20 03:57:02;;;;;;;1.50;0.70;;;;;;;;;;5492488;26;20249;-68
2024/04/20 03:59:31;;;;;;;1.00;0.80;;;;;;;;;;5492313;26;20206;-68
2024/04/20 04:02:02;;;;;;;1.83;0.90;;;;;;;;;;5492168;26;20451;-68
2024/04/20 04:04:31;;;;;;;1.48;1.13;;;;;;;;;;5492647;26;20545;-68
2024/04/20 04:06:59;;;;;;;1.27;1.15;;;;;;;;;;5492353;26;20214;-68
2024/04/20 04:09:28;;;;;;;1.48;0.80;;;;;;;;;;5492378;26;20599;-68
2024/04/20 04:11:56;;;;;;;0.80;0.80;;;;;;;;;;5492192;26;20286;-68
2024/04/20 04:14:25;;;;;;;0.93;0.88;;;;;;;;;;5492323;26;20241;-68
2024/04/20 04:16:56;;;;;;;0.90;0.80;;;;;;;;;;5492177;26;20240;-68
2024/04/20 04:19:27;;;;;;;3.70;1.13;;;;;;;;;;5492281;26;20267;-68
2024/04/20 04:21:58;;;;;;;0.70;0.70;;;;;;;;;;5492094;26;20210;-68
2024/04/20 04:24:26;;;;;;;1.00;0.90;;;;;;;;;;5492001;26;20202;-68
2024/04/20 04:26:55;;;;;;;1.00;0.90;;;;;;;;;;5492004;26;20210;-68
2024/04/20 04:29:24;;;;;;;0.90;0.80;;;;;;;;;;5492040;26;20218;-68
2024/04/20 04:31:52;;;;;;;1.10;1.00;;;;;;;;;;5491956;26;20611;-68
2024/04/20 04:34:21;;;;;;;0.80;0.80;;;;;;;;;;5491800;26;20232;-68
2024/04/20 04:36:52;;;;;;;0.82;0.80;;;;;;;;;;5491772;26;20732;-68
2024/04/20 04:39:21;;;;;;;1.13;1.02;;;;;;;;;;5491875;26;20240;-68
2024/04/20 04:41:49;;;;;;;1.15;1.00;;;;;;;;;;5491744;26;20254;-68
2024/04/20 04:44:18;;;;;;;1.30;0.70;;;6.00;99.90;;;;;;5491683;26;20202;-68
2024/04/20 04:46:46;;;;;;;2.45;1.30;;;6.00;99.90;;;;;;5491709;26;20237;-68
2024/04/20 04:49:14;;;;;;;1.17;1.08;;;6.00;99.90;;;;;;5491516;26;20210;-68
2024/04/20 04:51:42;;;;;;;1.05;0.80;;;6.00;99.90;;;;;;5491713;26;20206;-68
2024/04/20 04:54:13;;;;;;;1.50;1.20;;;6.00;99.90;;;;;;5491374;26;20260;-68
2024/04/20 04:56:41;;;;;;;1.20;1.10;;;6.00;99.90;;;;;;5491032;26;20206;-68
2024/04/20 04:59:09;;;;;;;1.10;1.00;;;6.00;99.90;;;;;;5491540;26;20249;-68
2024/04/20 05:01:38;;;;;;;2.88;1.00;;;6.00;99.90;;;;;;5491355;26;20248;-68
2024/04/20 05:04:07;;;;;;;0.80;0.80;;;6.00;99.90;;;;;;5491502;26;20802;-68
2024/04/20 05:06:35;;;;;;;4.10;0.93;;;5.90;99.90;;;;;;5491419;26;20548;-68
2024/04/20 05:09:03;;;;;;;0.95;0.90;;;6.00;99.90;;;;;;5491328;26;20222;-69
2024/04/20 05:11:34;;;;;;;1.23;1.13;;;5.90;99.90;;;;;;5491287;26;20209;-69
2024/04/20 05:14:02;;;;;;;1.00;0.90;;;5.90;99.90;;;;;;5491354;26;20491;-69
2024/04/20 05:16:30;;;;;;;2.15;1.02;;;5.80;99.90;;;;;;5491253;26;20257;-68
2024/04/20 05:18:58;;;;;;;1.00;1.00;;;5.90;99.90;;;;;;5491221;26;20237;-69
2024/04/20 05:21:26;;;;;;;1.10;1.00;;;5.90;99.90;;;;;;5491195;26;20230;-68
2024/04/20 05:23:55;;;;;;;1.40;1.30;;;;;;;;;;5491285;26;20248;-69
2024/04/20 05:26:25;;;;;;;1.85;1.75;;;;;;;;;;5491034;26;20210;-68
2024/04/20 05:28:56;;;;;;;1.88;1.70;;;;;;;;;;5491026;26;20256;-69
2024/04/20 05:31:25;;;;;;;2.05;1.95;;;;;;;;;;5491030;26;20241;-68
2024/04/20 05:33:53;;;;;;;1.55;1.30;;;;;;;;;;5491010;26;20253;-69
2024/04/20 05:36:22;;;;;;;2.13;1.35;;;;;;;;;;5490885;26;20213;-69
2024/04/20 05:38:50;;;;;;;1.67;1.58;;;;;;;;;;5490886;26;20222;-68
2024/04/20 05:41:19;;;;;;;1.40;1.30;;;;;;;;;;5490703;26;20249;-68
2024/04/20 05:43:45;;;;;;;1.30;1.20;;;;;;;;;;5490764;26;20210;-68
2024/04/20 05:46:16;;;;;;;1.65;1.20;;;;;;;;;;5490876;26;20527;-68
2024/04/20 05:48:45;;;;;;;1.77;1.20;;;;;;;;;;5490781;26;20232;-68
2024/04/20 05:51:13;;;;;;;1.30;1.10;;;;;;;;;;5490941;26;20236;-68
2024/04/20 05:53:42;;;;;;;1.90;1.08;;;;;;;;;;5490754;26;20253;-68
2024/04/20 05:56:11;;;;;;;2.83;1.42;;;;;;;;;;5490698;26;20233;-68
2024/04/20 05:58:39;;;;;;;1.73;1.63;;;;;;;;;;5490946;26;20217;-68
2024/04/20 06:01:08;;;;;;;1.48;1.38;;;;;;;;;;5490706;26;20214;-68
2024/04/20 06:03:39;;;;;;;1.85;1.27;;;;;;;;;;5490703;26;20210;-68
2024/04/20 06:06:08;;;;;;;1.20;1.10;;;;;;;;;;5490772;26;20209;-68
2024/04/20 06:08:36;;;;;;;1.27;1.17;;;;;;;;;;5489446;26;20236;-68
2024/04/20 06:11:08;;;;;;;1.30;1.05;;;;;;;;;;5490717;26;20248;-68
2024/04/20 06:13:37;;;;;;;1.88;1.60;;;;;;;;;;5490512;26;20717;-68
2024/04/20 06:16:06;;;;;;;1.27;1.17;;;;;;;;;;5490596;26;20236;-68
2024/04/20 06:18:34;;;;;;;3.17;1.40;;;;;;;;;;5490576;26;20209;-68
2024/04/20 06:21:06;;;;;;;1.38;1.20;;;;;;;;;;5490462;26;20244;-68
2024/04/20 06:23:35;;;;;;;1.75;1.55;;;;;;;;;;5490409;26;20237;-68
2024/04/20 06:26:03;;;;;;;1.45;1.35;;;;;;;;;;5490640;26;20206;-68
2024/04/20 06:28:32;;;;;;;1.30;1.20;;;;;;;;;;5490611;26;20249;-69
2024/04/20 06:31:02;;;;;;;1.88;0.95;;;;;;;;;;5490341;26;20214;-68
2024/04/20 06:33:31;;;;;;;1.73;1.63;;;;;;;;;;5490159;26;20256;-68
2024/04/20 06:36:00;;;;;;;1.80;1.70;;;;;;;;;;5490294;26;20202;-68
2024/04/20 06:38:31;;;;;;;1.60;1.45;;;;;;;;;;5490235;26;20244;-68
2024/04/20 06:40:59;;;;;;;2.75;1.30;;;;;;;;;;5489981;26;20541;-68
2024/04/20 06:43:28;;;;;;;1.42;1.33;;;;;;;;;;5490267;26;20214;-68
2024/04/20 06:45:56;;;;;;;2.60;1.50;;;;;;;;;;5490120;26;20214;-68
2024/04/20 06:48:25;;;;;;;1.23;1.13;;;;;;;;;;5490063;26;20253;-68
2024/04/20 06:50:54;;;;;;;2.25;1.25;;;;;;;;;;5489789;26;20232;-68
2024/04/20 06:53:22;;;;;;;5.57;1.35;;;;;;;;;;5489864;26;20207;-68
2024/04/20 06:56:00;;;;;;;1.57;1.47;;;;;;;;;;5490058;26;20630;-68
2024/04/20 06:58:28;;;;;;;1.40;1.30;;;;;;;;;;5489748;26;20568;-68
2024/04/20 07:00:57;;;;;;;2.58;1.67;;;;;;;;;;5489907;26;20237;-68
2024/04/20 07:03:26;;;;;;;2.30;1.42;;;;;;;;;;5489845;26;20257;-68
2024/04/20 07:05:55;;;;;;;1.63;1.52;;;;;;;;;;5489858;26;20247;-68
2024/04/20 07:08:24;;;;;;;1.33;1.23;;;;;;;;;;5489765;26;20681;-68
2024/04/20 07:10:55;;;;;;;1.45;1.35;;;;;;;;;;5489597;26;20217;-68
2024/04/20 07:13:27;;;;;;;3.25;1.45;;;;;;;;;;5489668;26;20228;-68
2024/04/20 07:15:56;;;;;;;1.60;1.50;;;;;;;;;;5489635;26;20237;-68
2024/04/20 07:18:24;;;;;;;1.60;1.48;;;;;;;;;;5489288;26;20248;-68
2024/04/20 07:20:53;;;;;;;2.30;1.57;;;;;;;;;;5489121;26;20209;-68
2024/04/20 07:23:22;;;;;;;1.70;1.60;;;;;;;;;;5489394;26;20487;-68
2024/04/20 07:25:59;;;;;;;2.17;1.98;;;;;;;;;;5489345;26;20253;-68
2024/04/20 07:28:31;;;;;;;3.13;2.75;;;;;;;;;;5489330;26;20246;-68
2024/04/20 07:30:59;;;;;;;2.40;2.20;;;;;;;;;;5489165;26;20298;-68
2024/04/20 07:33:28;;;;;;;2.17;2.07;;;;;;;;;;5489547;26;20530;-68
2024/04/20 07:35:57;;;;;;;2.40;2.22;;;;;;;;;;5489290;26;20439;-68
2024/04/20 07:38:25;;;;;;;3.05;2.35;;;;;;;;;;5489193;26;20571;-68
2024/04/20 07:40:54;;;;;;;3.10;2.20;;;;;;;;;;5489112;26;20232;-68
2024/04/20 07:43:22;;;;;;;1.92;1.83;;;;;;;;;;5489103;26;20487;-68
2024/04/20 07:45:54;;;;;;;1.87;1.77;;;;;;;;;;5488849;26;20244;-68
2024/04/20 07:48:22;;;;;;;1.45;1.35;;;;;;;;;;5488976;26;20451;-68
2024/04/20 07:50:51;;;;;;;2.15;1.38;;;;;;;;;;5488944;26;20213;-68
2024/04/20 07:53:19;;;;;;;1.50;1.30;;;;;;;;;;5488906;26;20703;-68
2024/04/20 07:55:48;;;;;;;1.58;1.20;;;;;;;;;;5489196;26;20479;-68
2024/04/20 07:58:16;;;;;;;1.48;1.38;;;;;;;;;;5488905;26;20249;-68
2024/04/20 08:00:45;;;;;;;1.40;1.30;;;;;;;;;;5489045;26;20214;-68
2024/04/20 08:03:17;;;;;;;2.33;1.83;;;;;;;;;;5488650;26;20240;-68
2024/04/20 08:05:45;;;;;;;2.23;2.00;;;;;;;;;;5488767;26;20209;-68
2024/04/20 08:08:14;;;;;;;2.60;2.22;;;;;;;;;;5488649;26;20469;-68
2024/04/20 08:10:43;;;;;;;2.17;1.98;;;;;;;;;;5488496;26;20236;-68
2024/04/20 08:13:11;;;;;;;2.03;1.92;;;;;;;;;;5488550;26;20218;-68
2024/04/20 08:15:40;;;;;;;3.30;3.00;;;;;;;;;;5488550;26;20298;-68
2024/04/20 08:18:09;;;;;;;2.57;2.37;;;;;;;;;;5488459;26;20450;-68
2024/04/20 08:20:40;;;;;;;2.63;2.43;;;;;;;;;;5488416;26;20455;-68
2024/04/20 08:23:10;;;;;;;3.40;3.10;;;;;;;;;;5488376;26;21018;-68
2024/04/20 08:25:38;;;;;;;3.77;3.47;;;;;;;;;;5488596;26;20439;-68
2024/04/20 08:28:07;;;;;;;5.13;3.07;;;;;;;;;;5488239;26;20447;-68
2024/04/20 08:30:35;;;;;;;6.18;3.83;;;;;;;;;;5488411;26;20419;-68
2024/04/20 08:33:04;;;;;;;5.10;3.83;;;;;;;;;;5491863;26;20210;-68
2024/04/20 08:35:32;;;;;;;4.40;4.00;;;;;;;;;;5491886;26;20487;-68
2024/04/20 08:38:04;;;;;;;4.63;4.03;;;;;;;;;;5491840;26;20936;-68
2024/04/20 08:40:34;;;;;;;4.20;3.80;;;;;;;;;;5491842;26;20843;-68
2024/04/20 08:43:03;;;;;;;3.70;3.40;;;;;;;;;;5491722;26;20495;-68
2024/04/20 08:45:33;;;;;;;3.90;3.50;;;7.60;99.90;;;;;;5491584;26;20450;-68
2024/04/20 08:48:01;;;;;;;4.47;3.90;;;7.50;99.90;;;;;;5491621;26;20424;-68
2024/04/20 08:50:31;;;;;;;4.73;3.90;;;7.70;99.90;;;;;;5491726;26;20463;-68
2024/04/20 08:53:07;;;;;;;2.83;2.63;;;7.70;99.90;;;;;;5491693;26;20443;-68
2024/04/20 08:55:35;;;;;;;3.17;2.87;;;7.80;99.90;;;;;;5491503;26;20522;-68
2024/04/20 08:58:04;;;;;;;3.27;2.57;;;8.00;99.90;;;;;;5491747;26;20443;-68
2024/04/20 09:00:36;;;;;;;2.43;2.23;;;8.10;99.90;;;;;;5491351;26;20446;-68
2024/04/20 09:03:04;;;;;;;2.57;2.37;;;8.20;99.90;;;;;;5491356;26;20507;-68
2024/04/20 09:05:34;;;;;;;2.60;2.40;;;8.20;99.90;;;;;;5491613;26;20447;-68
2024/04/20 09:08:05;;;;;;;3.43;3.10;;;;;;;;;;5491736;26;21034;-68
2024/04/20 09:10:33;;;;;;;2.23;2.03;;;7.90;99.90;;;;;;5491592;26;20439;-68
2024/04/20 09:13:02;;;;;;;2.07;1.87;;;7.90;99.90;;;;;;5491620;26;20439;-68
2024/04/20 09:15:30;;;;;;;1.90;1.80;;;7.70;99.90;;;;;;5491386;26;20450;-68
2024/04/20 09:17:58;;;;;;;1.40;1.30;;;7.50;99.90;;;;;;5491490;26;20791;-68
2024/04/20 09:20:26;;;;;;;1.83;1.73;;;7.20;99.90;;;;;;5491239;26;20495;-68
2024/04/20 09:23:07;;;;;;;1.30;1.20;;;6.90;99.90;;;;;;5491082;26;20440;-68
2024/04/20 09:25:37;;;;;;;1.40;1.30;;;6.90;99.90;;;;;;5491247;26;20942;-68
2024/04/20 09:28:06;;;;;;;1.57;1.47;;;6.90;99.90;;;;;;5491226;26;21006;-68
2024/04/20 09:30:35;;;;;;;1.50;1.33;;;7.10;99.90;;;;;;5491331;26;20439;-68
2024/04/20 09:33:03;;;;;;;1.67;1.47;;;;;;;;;;5491409;26;20847;-68
2024/04/20 09:35:32;;;;;;;2.73;1.30;;;;;;;;;;5491209;26;20440;-68
2024/04/20 09:38:00;;;;;;;1.23;1.10;;;;;;;;;;5490932;26;20451;-68
2024/04/20 09:40:32;;;;;;;1.47;1.33;;;7.90;99.90;;;;;;5491068;26;20415;-68
2024/04/20 09:43:02;;;;;;;1.10;1.00;;;7.90;99.90;;;;;;5489063;26;20487;-68
2024/04/20 09:45:31;;;;;;;1.20;1.00;;;8.10;99.90;;;;;;5490935;26;20442;-68
2024/04/20 09:48:02;;;;;;;1.80;1.10;;;8.50;99.90;;;;;;5490637;26;20447;-68
2024/04/20 09:50:31;;;;;;;0.80;0.80;;;8.60;99.90;;;;;;5490795;26;20495;-68
2024/04/20 09:53:04;;;;;;;1.10;1.00;;;8.30;99.90;;;;;;5490825;26;20446;-68
2024/04/20 09:55:36;;;;;;;1.50;1.20;;;8.20;99.90;;;;;;5490701;26;20783;-68
2024/04/20 09:58:05;;;;;;;1.47;0.90;;;8.10;99.90;;;;;;5490788;26;20502;-68
2024/04/20 10:00:35;;;;;;;1.50;1.40;;;7.90;99.90;;;;;;5490691;26;20978;-68
2024/04/20 10:03:06;;;;;;;1.30;1.20;;;7.80;99.90;;;;;;5490558;26;20443;-68
2024/04/20 10:05:38;;;;;;;1.60;1.50;;;7.60;99.90;;;;;;5490660;26;20439;-68
2024/04/20 10:08:07;;;;;;;1.60;1.50;;;7.30;99.90;;;;;;5490553;26;20481;-68
2024/04/20 10:10:38;;;;;;;2.33;1.57;;;7.20;99.90;;;;;;5490458;26;20481;-68
2024/04/20 10:13:09;;;;;;;2.03;1.80;;;7.10;99.90;;;;;;5490567;26;20447;-68
2024/04/20 10:15:38;;;;;;;1.73;1.63;;;7.10;99.90;;;;;;5490579;26;20495;-68
2024/04/20 10:18:07;;;;;;;1.30;1.20;;;7.20;99.90;;;;;;5490534;26;20507;-68
2024/04/20 10:20:36;;;;;;;1.93;1.47;;;7.10;99.90;;;;;;5490295;26;20958;-68
2024/04/20 10:23:05;;;;;;;2.00;1.35;;;7.30;99.90;;;;;;5490270;26;20491;-68
2024/04/20 10:25:34;;;;;;;2.97;1.50;;;7.00;99.90;;;;;;5490251;26;20210;-68
2024/04/20 10:28:05;;;;;;;2.22;1.77;;;7.00;99.90;;;;;;5490395;26;20250;-68
2024/04/20 10:30:33;;;;;;;1.90;1.42;;;7.10;99.90;;;;;;5490349;26;20217;-68
2024/04/20 10:33:09;;;;;;;1.52;1.42;;;7.10;99.90;;;;;;5490057;26;20213;-68
2024/04/20 10:35:37;;;;;;;1.63;1.33;;;7.30;99.90;;;;;;5490682;26;20218;-68
2024/04/20 10:38:08;;;;;;;2.70;1.20;;;7.40;99.90;;;;;;5490622;26;20938;-68
2024/04/20 10:40:38;;;;;;;1.20;1.10;;;7.50;99.90;;;;;;5490401;26;20440;-68
2024/04/20 10:43:14;;;;;;;3.07;1.60;;;7.50;99.90;;;;;;5490086;26;20577;-68
2024/04/20 10:45:43;;;;;;;0.80;0.80;;;7.60;99.90;;;;;;5490159;26;20482;-68
2024/04/20 10:48:13;;;;;;;1.30;1.20;;;7.90;99.90;;;;;;5489794;26;20820;-68
2024/04/20 10:50:43;;;;;;;1.33;1.17;;;8.10;99.90;;;;;;5489967;26;20482;-68
2024/04/20 10:53:12;;;;;;;1.40;1.30;;;8.30;99.90;;;;;;5489901;26;20782;-68
2024/04/20 10:55:40;;;;;;;1.93;1.30;;;8.20;99.90;;;;;;5489108;26;20503;-68
2024/04/20 10:58:08;;;;;;;2.63;1.37;;;8.30;99.90;;;;;;5489702;26;20496;-68
2024/04/20 11:00:39;;;;;;;2.70;1.60;;;8.40;99.90;;;;;;5489799;26;20458;-68
2024/04/20 11:03:07;;;;;;;1.83;1.13;;;8.30;99.90;;;;;;5489773;26;20458;-68
2024/04/20 11:05:35;;;;;;;1.60;1.23;;;8.30;99.90;;;;;;5489755;26;20783;-68
2024/04/20 11:08:04;;;;;;;1.47;1.20;;;8.40;99.90;;;;;;5489667;26;20439;-68
2024/04/20 11:10:33;;;;;;;2.60;1.33;;;8.40;99.90;;;;;;5489564;26;20439;-68
2024/04/20 11:13:02;;;;;;;1.63;0.97;;;8.40;99.90;;;;;;5489604;26;20443;-69
2024/04/20 11:15:31;;;;;;;2.70;1.47;;;8.50;99.90;;;;;;5489524;26;20439;-68
2024/04/20 11:18:02;;;;;;;1.30;1.20;;;8.60;99.90;;;;;;5489592;26;20443;-68
2024/04/20 11:20:30;;;;;;;1.53;1.20;;;8.70;99.90;;;;;;5489628;26;20491;-68
2024/04/20 11:23:02;;;;;;;1.30;1.20;;;8.70;99.90;;;;;;5489409;26;20458;-68
2024/04/20 11:25:30;;;;;;;1.40;1.30;;;8.70;99.90;;;;;;5489503;26;21009;-68
2024/04/20 11:28:00;;;;;;;1.20;1.10;;;8.70;99.90;;;;;;5489366;26;20478;-69
2024/04/20 11:30:29;;;;;;;1.70;1.27;;;8.60;99.90;;;;;;5489439;26;20503;-68
2024/04/20 11:32:59;;;;;;;1.37;1.27;;;8.50;99.90;;;;;;5489383;26;20458;-68
2024/04/20 11:35:30;;;;;;;1.60;1.50;;;8.70;99.90;;;;;;5489340;26;20443;-68
2024/04/20 11:38:04;;;;;;;1.60;1.50;;;9.10;99.90;;;;;;5489394;26;20500;-68
2024/04/20 11:40:32;;;;;;;1.40;1.27;;;9.20;99.90;;;;;;5489331;26;20491;-68
2024/04/20 11:43:00;;;;;;;1.33;1.23;;;9.20;99.90;;;;;;5489141;26;20454;-68
2024/04/20 11:45:29;;;;;;;1.20;1.10;;;9.00;99.90;;;;;;5489277;26;20435;-68
2024/04/20 11:47:57;;;;;;;1.83;1.73;;;9.20;99.90;;;;;;5488969;26;20447;-68
2024/04/20 11:50:25;;;;;;;1.40;1.30;;;9.40;99.90;;;;;;5488922;26;20503;-68
2024/04/20 11:55:42;;;;;;;3.30;1.33;;;9.30;99.90;;;;;;5491625;26;20911;-68
2024/04/20 11:58:10;;;;;;;5.73;3.60;;;9.40;99.90;;;;;;5488821;26;20438;-68
2024/04/20 12:00:39;;;;;;;1.37;1.10;;;9.50;99.90;;;;;;5489154;26;20478;-68
2024/04/20 12:03:07;;;;;;;1.50;1.40;;;9.50;99.90;;;;;;5488642;26;20794;-68
2024/04/20 12:05:35;;;;;;;1.57;1.43;;;9.50;99.90;;;;;;5488702;26;20498;-67
2024/04/20 12:08:06;;;;;;;2.13;1.13;;;9.50;99.90;;;;;;5492379;26;20443;-67
2024/04/20 12:10:35;;;;;;;1.80;1.30;;;9.30;99.90;;;;;;5492234;26;20447;-69
2024/04/20 12:13:03;;;;;;;1.63;1.30;;;9.10;99.90;;;;;;5492210;26;20435;-68
2024/04/20 12:15:31;;;;;;;4.03;1.60;;;8.90;99.90;;;;;;5492218;26;20451;-67
2024/04/20 12:17:59;;;;;;;1.00;1.00;;;8.60;99.90;;;;;;5492573;26;20816;-68
2024/04/20 12:20:27;;;;;;;0.87;0.80;;;8.30;99.90;;;;;;5492277;26;20447;-68
2024/04/20 12:22:55;;;;;;;2.00;0.93;;;8.40;99.90;;;;;;5492025;26;20435;-68
2024/04/20 12:25:26;;;;;;;0.73;0.70;;;8.60;99.90;;;;;;5492160;26;20487;-68
2024/04/20 12:27:54;;;;;;;0.93;0.83;;;8.70;99.90;;;;;;5492145;26;20443;-68
2024/04/20 12:30:22;;;;;;;1.17;0.90;;;9.00;99.90;;;;;;5491778;26;20455;-68
2024/04/20 12:32:50;;;;;;;4.20;1.00;;;9.10;99.90;;;;;;5491945;26;20450;-68
2024/04/20 12:35:18;;;;;;;1.00;0.87;;;9.20;99.90;;;;;;5491965;26;20848;-68
2024/04/20 12:37:46;;;;;;;2.50;1.43;;;9.40;99.90;;;;;;5492011;26;20446;-68
2024/04/20 12:40:19;;;;;;;1.10;0.90;;;9.60;99.90;;;;;;5491861;26;20970;-68
2024/04/20 12:42:50;;;;;;;2.30;0.87;;;9.70;99.90;;;;;;5491855;26;20990;-68
2024/04/20 12:45:19;;;;;;;2.87;2.00;;;9.90;99.90;;;;;;5491809;26;20505;-68
2024/04/20 12:47:48;;;;;;;1.53;1.00;;;10.10;99.90;;;;;;5491737;26;20999;-68
2024/04/20 12:50:16;;;;;;;1.00;0.90;;;10.20;99.90;;;;;;5491764;26;20487;-68
2024/04/20 12:52:44;;;;;;;1.10;1.10;;;10.30;99.90;;;;;;5491698;26;20485;-68
2024/04/20 12:55:13;;;;;;;1.10;1.00;;;10.50;99.90;;;;;;5491840;26;20848;-68
2024/04/20 12:57:41;;;;;;;2.20;1.20;;;10.80;99.90;;;;;;5491658;26;20831;-68
2024/04/20 13:00:13;;;;;;;1.43;1.10;;;11.10;99.90;;;;;;5491612;26;20451;-69
2024/04/20 13:02:41;;;;;;;1.30;1.20;;;11.50;99.90;;;;;;5491536;26;20447;-68
2024/04/20 13:05:10;;;;;;;2.10;1.20;;;11.70;99.90;;;;;;5491447;26;20439;-69
2024/04/20 13:07:38;;;;;;;1.00;0.90;;;11.80;99.90;;;;;;5491530;26;20499;-67
2024/04/20 13:10:07;;;;;;;1.40;1.30;;;11.10;99.90;;;;;;5491649;26;20455;-70
2024/04/20 13:12:35;;;;;;;1.80;1.70;;;10.40;99.90;;;;;;5491676;26;20493;-69
2024/04/20 13:15:03;;;;;;;1.60;1.40;;;9.90;99.90;;;;;;5491306;26;20501;-69
2024/04/20 13:17:34;;;;;;;3.73;1.53;;;9.60;99.90;;;;;;5490964;26;20435;-69
2024/04/20 13:20:02;;;;;;;1.53;1.40;;;9.50;99.90;;;;;;5491385;26;20451;-69
2024/04/20 13:22:31;;;;;;;3.87;1.93;;;9.50;99.90;;;;;;5491020;26;20443;-69
2024/04/20 13:24:59;;;;;;;2.73;1.80;;;9.50;99.90;;;;;;5491061;26;20466;-69
2024/04/20 13:27:28;;;;;;;3.27;1.60;;;9.60;99.90;;;;;;5491207;26;20485;-69
2024/04/20 13:29:56;;;;;;;2.10;1.80;;;9.90;99.90;;;;;;5491172;26;20499;-69
2024/04/20 13:32:24;;;;;;;2.00;1.90;;;9.90;99.90;;;;;;5491150;26;20553;-69
2024/04/20 13:34:58;;;;;;;1.47;1.37;;;10.10;99.90;;;;;;5491052;26;20985;-70
2024/04/20 13:37:26;;;;;;;2.10;2.00;;;10.20;99.90;;;;;;5491153;26;20499;-69
2024/04/20 13:39:54;;;;;;;3.03;2.60;;;10.40;99.90;;;;;;5491176;26;20773;-70